Time;durP1;ratioP1;P1;durP2;ratioP2;P2;SDS_P1;SDS_P2;PMS_P1;PMS_P2;Temp;Humidity;BMP_temperature;BMP_pressure;BME280_temperature;BME280_humidity;BME280_pressure;Samples;Min_cycle;Max_cycle;Signal;HPM_P1;HPM_P2
2022/10/20 00:01:45;;;;;;;3.30;3.10;;;;;;;23.19;61.50;97976.75;5045801;28;20442;-31
2022/10/20 00:04:17;;;;;;;2.90;2.70;;;;;;;23.19;61.67;97971.59;5046760;28;20679;-31
2022/10/20 00:06:43;;;;;;;3.07;2.87;;;;;;;23.16;61.46;97972.41;5043550;28;20211;-31
2022/10/20 00:09:10;;;;;;;3.30;3.00;;;;;;;23.19;61.64;97967.34;5044761;28;20687;-31
2022/10/20 00:11:36;;;;;;;3.03;2.83;;;;;;;23.19;61.56;97977.63;5045778;28;20202;-32
2022/10/20 00:14:03;;;;;;;3.30;3.00;;;;;;;23.19;61.69;97975.06;5047997;28;20208;-31
2022/10/20 00:16:30;;;;;;;3.30;3.00;;;;;;;23.19;61.55;97976.75;5046506;28;20213;-31
2022/10/20 00:18:57;;;;;;;2.60;2.40;;;;;;;23.19;61.38;97974.19;5045398;28;20678;-32
2022/10/20 00:21:24;;;;;;;3.50;3.20;;;;;;;23.14;61.46;97963.78;5046928;28;20197;-31
2022/10/20 00:23:51;;;;;;;3.27;3.07;;;;;;;23.18;61.55;97973.28;5045681;28;20201;-31
2022/10/20 00:26:20;;;;;;;3.27;3.07;;;;;;;23.19;61.56;97969.94;5044124;28;20205;-31
2022/10/20 00:28:46;;;;;;;3.30;3.00;;;;;;;23.19;61.59;97963.91;5045349;28;20212;-31
2022/10/20 00:31:13;;;;;;;3.30;3.10;;;;;;;23.19;61.70;97964.78;5042193;28;20197;-31
2022/10/20 00:33:39;;;;;;;3.53;3.23;;;;;;;23.19;61.29;97961.34;5046346;28;20801;-31
2022/10/20 00:36:07;;;;;;;3.30;3.00;;;;;;;23.14;61.31;97956.09;5049259;28;20201;-31
2022/10/20 00:38:34;;;;;;;3.70;3.40;;;;;;;22.55;61.55;97856.03;5045509;28;20223;-31
2022/10/20 00:41:03;;;;;;;3.00;2.80;;;;;;;23.18;61.68;97963.03;5046155;28;21240;-31
2022/10/20 00:43:44;;;;;;;3.23;3.00;;;;;;;23.18;61.38;97963.03;5050741;28;20205;-31
2022/10/20 00:46:12;;;;;;;3.63;3.30;;;;;;;23.19;61.40;97963.91;5039463;28;20207;-31
2022/10/20 00:48:39;;;;;;;2.83;2.63;;;;;;;23.14;61.52;97950.97;5033915;28;20224;-32
2022/10/20 00:51:06;;;;;;;3.43;3.13;;;;;;;23.19;61.56;97958.78;5031954;28;20196;-31
2022/10/20 00:53:33;;;;;;;3.50;3.20;;;;;;;23.20;61.64;97955.38;5044938;28;20212;-31
2022/10/20 00:55:59;;;;;;;3.33;3.03;;;;;;;23.19;61.53;97954.53;5045383;28;20209;-32
2022/10/20 00:58:26;;;;;;;3.30;3.00;;;;;;;23.16;61.47;97945.88;5043334;28;20221;-31
2022/10/20 01:00:54;;;;;;;3.00;2.80;;;;;;;23.18;61.55;97950.22;5043616;28;20225;-31
2022/10/20 01:03:23;;;;;;;3.43;3.13;;;;;;;23.11;61.60;97934.59;5040906;28;20211;-31
2022/10/20 01:05:50;;;;;;;3.60;3.30;;;;;;;23.19;61.65;97949.41;5026504;28;20200;-31
2022/10/20 01:08:16;;;;;;;3.67;3.37;;;;;;;23.19;61.71;97958.78;5044597;28;20223;-31
2022/10/20 01:11:05;;;;;;;3.23;3.03;;;;;;;23.19;61.66;97953.66;5039804;28;20197;-31
2022/10/20 01:13:50;;;;;;;3.07;2.87;;;;;;;23.18;61.60;97959.63;5029003;28;20209;-31
2022/10/20 01:16:24;;;;;;;3.07;2.83;;;;;;;23.18;61.68;97957.91;5039087;28;20205;-31
2022/10/20 01:19:17;;;;;;;3.73;3.43;;;;;;;23.19;61.40;97957.09;5028035;28;20224;-31
2022/10/20 01:22:24;;;;;;;3.47;3.17;;;;;;;23.18;61.48;97949.38;5045518;28;20205;-31
2022/10/20 01:24:50;;;;;;;3.13;2.93;;;;;;;23.18;61.45;97946.81;5041069;28;20660;-31
2022/10/20 01:27:22;;;;;;;3.10;2.90;;;;;;;23.18;61.51;97944.25;5053934;28;20201;-31
2022/10/20 01:29:54;;;;;;;3.97;3.30;;;;;;;23.18;61.58;97944.25;5035850;28;20220;-31
2022/10/20 01:32:27;;;;;;;3.73;3.43;;;;;;;23.18;61.67;97944.25;5051138;28;20207;-31
2022/10/20 01:34:53;;;;;;;3.07;2.87;;;;;;;23.18;61.46;97928.84;5038268;28;20649;-31
2022/10/20 01:37:45;;;;;;;3.20;3.00;;;;;;;23.17;61.57;97930.53;5040184;28;20208;-31
2022/10/20 01:40:23;;;;;;;3.20;2.93;;;;;;;23.17;61.42;97925.41;5041435;28;20267;-31
2022/10/20 01:42:50;;;;;;;3.20;3.00;;;;;;;23.18;61.43;97921.16;5041545;28;20197;-31
2022/10/20 01:45:17;;;;;;;3.30;3.10;;;;;;;23.18;61.57;97923.72;5048158;28;20675;-31
2022/10/20 01:47:44;;;;;;;3.77;3.47;;;;;;;23.06;61.52;97901.13;5029565;28;20205;-31
2022/10/20 01:50:10;;;;;;;3.53;3.23;;;;;;;23.15;61.55;97914.22;5021576;28;20206;-31
2022/10/20 01:52:37;;;;;;;3.57;3.27;;;;;;;23.18;61.50;97913.47;5028054;28;20205;-31
2022/10/20 01:55:11;;;;;;;2.93;2.73;;;;;;;23.17;61.62;97904.00;5041030;28;20208;-31
2022/10/20 01:57:47;;;;;;;3.30;3.10;;;;;;;23.17;61.40;97898.88;5041344;28;20204;-31
2022/10/20 02:00:14;;;;;;;3.50;3.20;;;;;;;23.17;61.50;97901.44;5037164;28;20705;-31
2022/10/20 02:02:56;;;;;;;3.27;3.07;;;;;;;23.15;61.33;97900.56;5026516;28;20216;-31
2022/10/20 02:05:41;;;;;;;3.30;3.10;;;;;;;23.18;61.67;97903.22;5040727;28;20201;-31
2022/10/20 02:09:06;;;;;;;3.53;3.23;;;;;;;23.17;61.34;97893.75;5052646;28;20224;-31
2022/10/20 02:11:41;;;;;;;3.60;3.30;;;;;;;23.17;61.44;97893.75;4999339;28;20613;-31
2022/10/20 02:14:09;;;;;;;3.57;3.33;;;;;;;23.13;61.52;97885.13;5037856;28;20566;-31
2022/10/20 02:16:47;;;;;;;3.93;3.63;;;;;;;23.15;61.70;97878.31;5027174;28;20328;-31
2022/10/20 02:19:15;;;;;;;3.63;3.27;;;;;;;23.16;61.44;97890.34;5024551;28;20221;-31
2022/10/20 02:21:41;;;;;;;3.60;3.30;;;;;;;23.16;61.67;97890.34;5031005;28;20200;-31
2022/10/20 02:24:08;;;;;;;3.97;3.67;;;;;;;23.13;61.69;97894.50;5037712;28;20200;-31
2022/10/20 02:26:36;;;;;;;3.13;2.93;;;;;;;23.16;61.36;97898.03;5045600;28;20205;-31
2022/10/20 02:29:08;;;;;;;3.60;3.30;;;;;;;23.15;61.44;97903.13;5043409;28;20220;-31
2022/10/20 02:31:34;;;;;;;3.60;3.30;;;;;;;23.16;61.44;97898.03;5045150;28;20197;-31
2022/10/20 02:34:01;;;;;;;3.80;3.50;;;;;;;23.16;61.52;97889.47;5031873;28;20667;-31
2022/10/20 02:36:27;;;;;;;3.90;3.23;;;;;;;23.15;61.74;97888.59;5028315;28;20197;-31
2022/10/20 02:38:54;;;;;;;3.57;3.27;;;;;;;23.15;61.59;97883.47;5040185;28;20225;-31
2022/10/20 02:41:20;;;;;;;3.63;3.33;;;;;;;23.16;61.44;97892.91;5045563;28;20536;-31
2022/10/20 02:43:47;;;;;;;3.70;3.40;;;;;;;23.16;61.49;97892.03;5048261;28;20212;-31
2022/10/20 02:46:15;;;;;;;3.60;3.30;;;;;;;23.15;61.64;97883.47;5058399;28;20686;-32
2022/10/20 02:48:42;;;;;;;3.50;3.20;;;;;;;23.16;61.51;97889.47;5049793;28;20217;-31
2022/10/20 02:51:09;;;;;;;3.50;3.20;;;;;;;23.15;61.77;97883.47;5045137;28;20197;-31
2022/10/20 02:53:35;;;;;;;4.17;3.77;;;;;;;23.16;61.55;97885.22;5049584;28;20204;-31
2022/10/20 02:56:02;;;;;;;3.93;3.63;;;;;;;23.13;61.60;97874.88;5049401;28;20387;-31
2022/10/20 02:58:28;;;;;;;3.17;2.97;;;;;;;23.16;61.54;97871.53;5049635;28;20224;-31
2022/10/20 03:00:55;;;;;;;3.03;2.83;;;;;;;23.15;61.68;97875.75;5049659;28;20395;-31
2022/10/20 03:03:21;;;;;;;3.63;3.33;;;;;;;23.15;61.52;97872.34;5043832;28;20205;-31
2022/10/20 03:05:48;;;;;;;3.90;3.60;;;;;;;23.13;61.71;97866.31;5039270;28;20212;-31
2022/10/20 03:08:14;;;;;;;3.57;3.27;;;;;;;23.15;61.44;97874.91;5048650;28;20714;-31
2022/10/20 03:10:41;;;;;;;4.03;3.70;;;;;;;23.15;61.53;97882.59;5047680;28;20602;-31
2022/10/20 03:13:09;;;;;;;3.50;3.20;;;;;;;23.16;61.56;97874.09;5040617;28;20212;-31
2022/10/20 03:15:37;;;;;;;3.80;3.50;;;;;;;23.16;61.42;97874.09;5051781;28;20580;-32
2022/10/20 03:18:03;;;;;;;3.80;3.50;;;;;;;23.11;61.63;97871.38;5046433;28;20231;-31
2022/10/20 03:20:30;;;;;;;3.07;2.87;;;;;;;23.15;61.59;97869.78;5044495;28;20221;-31
2022/10/20 03:22:56;;;;;;;3.90;3.60;;;;;;;23.15;61.61;97873.19;5043004;28;20209;-31
2022/10/20 03:25:23;;;;;;;3.77;3.47;;;;;;;23.16;61.42;97879.22;5043862;28;20604;-31
2022/10/20 03:27:49;;;;;;;3.70;3.40;;;;;;;23.13;61.55;97874.00;5043806;28;20220;-31
2022/10/20 03:30:16;;;;;;;3.60;3.30;;;;;;;23.08;61.51;97862.72;5048844;28;20211;-31
2022/10/20 03:32:43;;;;;;;3.60;3.30;;;;;;;23.16;61.37;97871.53;5049455;28;20201;-31
2022/10/20 03:35:09;;;;;;;3.80;3.50;;;;;;;23.15;61.67;97870.63;5045563;28;20210;-31
2022/10/20 03:37:36;;;;;;;3.60;3.30;;;;;;;23.15;61.59;97873.19;5054275;28;20657;-31
2022/10/20 03:40:02;;;;;;;3.63;3.43;;;;;;;23.15;61.60;97869.78;5043531;28;20233;-31
2022/10/20 03:42:29;;;;;;;3.60;3.30;;;;;;;23.16;61.53;97874.97;5052912;28;20217;-31
2022/10/20 03:44:55;;;;;;;3.50;3.20;;;;;;;23.15;61.51;97862.09;5050247;28;20208;-31
2022/10/20 03:47:22;;;;;;;3.47;3.17;;;;;;;23.15;61.58;97852.69;5058105;28;20200;-31
2022/10/20 03:49:48;;;;;;;3.90;3.60;;;;;;;23.16;61.67;97857.00;5047235;28;20460;-31
2022/10/20 03:52:15;;;;;;;3.80;3.50;;;;;;;23.15;61.56;97857.81;5048857;28;20216;-31
2022/10/20 03:54:41;;;;;;;3.60;3.30;;;;;;;23.15;61.46;97852.69;5045248;28;20206;-31
2022/10/20 03:57:08;;;;;;;3.53;3.23;;;;;;;23.15;61.54;97860.38;5048737;28;20208;-31
2022/10/20 03:59:34;;;;;;;3.90;3.60;;;;;;;23.11;61.49;97853.44;5055830;28;20534;-31
2022/10/20 04:02:01;;;;;;;3.83;3.53;;;;;;;23.10;61.50;97853.41;5048950;28;20699;-31
2022/10/20 04:04:28;;;;;;;3.60;3.10;;;;;;;23.15;61.36;97868.06;5043111;28;20309;-31
2022/10/20 04:06:54;;;;;;;3.40;3.13;;;;;;;23.15;61.53;97868.06;5038534;28;20213;-31
2022/10/20 04:09:21;;;;;;;3.60;3.30;;;;;;;23.15;61.37;97875.75;5047415;28;20240;-31
2022/10/20 04:11:47;;;;;;;3.63;3.33;;;;;;;23.15;61.00;97875.75;5043022;28;20230;-31
2022/10/20 04:14:14;;;;;;;3.27;3.07;;;;;;;23.15;61.67;97875.75;5046153;28;20197;-31
2022/10/20 04:16:40;;;;;;;3.70;3.40;;;;;;;23.15;61.35;97878.31;5040584;28;20219;-31
2022/10/20 04:19:07;;;;;;;3.30;3.00;;;;;;;23.15;61.35;97873.19;5042176;28;20255;-31
2022/10/20 04:21:33;;;;;;;3.70;3.40;;;;;;;23.14;61.39;97871.47;5050346;28;20221;-31
2022/10/20 04:24:00;;;;;;;3.57;3.27;;;;;;;23.15;61.63;97869.78;5051132;28;20373;-31
2022/10/20 04:26:26;;;;;;;3.80;3.50;;;;;;;23.14;61.31;97875.72;5046766;28;20201;-31
2022/10/20 04:28:55;;;;;;;3.50;3.27;;;;;;;23.15;61.54;97877.47;5053511;28;20224;-31
2022/10/20 04:31:22;;;;;;;4.07;3.67;;;;;;;23.15;61.71;97869.78;5044879;28;20204;-31
2022/10/20 04:33:48;;;;;;;3.50;3.30;;;;;;;23.14;61.55;97865.47;5051713;28;20200;-31
2022/10/20 04:36:15;;;;;;;3.50;3.30;;;;;;;23.14;61.55;97856.09;5049166;28;20203;-31
2022/10/20 04:38:41;;;;;;;3.57;3.27;;;;;;;23.14;61.59;97853.53;5049736;28;20227;-31
2022/10/20 04:41:08;;;;;;;3.77;3.47;;;;;;;23.15;61.43;97849.28;5058775;28;20215;-31
2022/10/20 04:43:35;;;;;;;3.90;3.60;;;;;;;23.15;61.50;97856.97;5055099;28;20215;-31
2022/10/20 04:46:02;;;;;;;3.43;3.20;;;;;;;23.14;61.40;97853.53;5056604;28;20196;-31
2022/10/20 04:48:34;;;;;;;3.47;3.27;;;;;;;23.14;61.43;97853.53;5040466;28;20225;-31
2022/10/20 04:51:01;;;;;;;3.40;3.20;;;;;;;23.15;61.34;97847.56;5038332;28;20204;-31
2022/10/20 04:53:28;;;;;;;3.60;3.40;;;;;;;23.15;61.82;97849.28;5048725;28;20201;-31
2022/10/20 04:55:55;;;;;;;3.60;3.30;;;;;;;23.13;61.56;97840.66;5046418;28;20223;-31
2022/10/20 04:58:22;;;;;;;3.63;3.33;;;;;;;23.14;61.29;97834.69;5049189;28;20238;-31
2022/10/20 05:00:49;;;;;;;4.50;4.10;;;;;;;23.11;61.33;97835.50;5040241;28;20217;-31
2022/10/20 05:03:15;;;;;;;6.17;5.57;;;;;;;23.10;60.01;97827.75;5053588;28;20204;-31
2022/10/20 05:05:42;;;;;;;6.80;6.10;;;;;;;23.14;58.59;97837.25;5054373;28;20204;-31
2022/10/20 05:08:08;;;;;;;7.67;6.87;;;;;;;23.14;56.81;97835.56;5041552;28;20227;-31
2022/10/20 05:10:35;;;;;;;10.97;7.80;;;;;;;23.13;55.71;97838.97;5046612;28;20193;-31
2022/10/20 05:13:02;;;;;;;8.80;7.20;;;;;;;23.10;54.96;97833.78;5042647;28;20258;-31
2022/10/20 05:15:28;;;;;;;7.57;6.77;;;;;;;23.13;55.05;97838.09;5047520;28;20208;-31
2022/10/20 05:17:55;;;;;;;7.00;6.30;;;;;;;23.12;55.74;97839.78;5045122;28;20668;-31
2022/10/20 05:20:21;;;;;;;7.30;6.60;;;;;;;23.12;56.47;97831.25;5053447;28;20228;-31
2022/10/20 05:22:48;;;;;;;7.57;6.63;;;;;;;23.07;57.05;97822.53;5045483;28;20684;-31
2022/10/20 05:25:14;;;;;;;7.27;6.17;;;;;;;23.12;57.71;97828.69;5045805;28;20205;-31
2022/10/20 05:28:01;;;;;;;6.30;5.70;;;;;;;23.12;58.11;97841.50;5044849;28;20235;-31
2022/10/20 05:30:27;;;;;;;6.57;5.47;;;;;;;23.13;58.32;97835.53;5040145;28;20231;-31
2022/10/20 05:32:54;;;;;;;6.07;5.47;;;;;;;23.13;58.61;97830.41;5038518;28;20205;-31
2022/10/20 05:35:20;;;;;;;6.67;5.97;;;;;;;23.12;58.96;97832.09;5045099;28;20213;-31
2022/10/20 05:37:47;;;;;;;5.43;4.97;;;;;;;23.09;59.16;97824.31;5052005;28;20208;-32
2022/10/20 05:40:13;;;;;;;7.97;5.50;;;;;;;23.13;59.00;97825.28;5042947;28;20225;-31
2022/10/20 05:42:40;;;;;;;6.10;5.37;;;;;;;23.06;59.24;97813.97;5039516;28;20213;-31
2022/10/20 05:45:07;;;;;;;6.07;5.47;;;;;;;23.12;59.32;97821.84;5046218;28;20489;-31
2022/10/20 05:47:34;;;;;;;7.10;5.27;;;;;;;23.11;59.20;97811.53;5043283;28;20664;-31
2022/10/20 05:50:00;;;;;;;6.10;5.17;;;;;;;23.13;58.85;97808.22;5044143;28;20289;-31
2022/10/20 05:52:27;;;;;;;8.93;6.03;;;;;;;23.11;58.87;97811.53;5049265;28;20197;-31
2022/10/20 05:54:53;;;;;;;8.67;5.73;;;;;;;23.11;58.37;97809.84;5039122;28;20215;-31
2022/10/20 05:57:20;;;;;;;7.77;6.10;;;;;;;23.14;57.85;97819.31;5037816;28;20206;-31
2022/10/20 05:59:46;;;;;;;6.97;5.80;;;;;;;23.13;57.16;97820.16;5043894;28;20220;-31
2022/10/20 06:02:13;;;;;;;7.03;6.03;;;;;;;23.12;57.43;97821.84;5045612;28;20221;-31
2022/10/20 06:04:39;;;;;;;10.67;5.97;;;;;;;23.12;58.03;97815.88;5046395;28;20197;-31
2022/10/20 06:07:08;;;;;;;11.03;6.10;;;;;;;23.12;58.32;97816.72;5054143;28;20200;-31
2022/10/20 06:09:35;;;;;;;9.23;5.57;;;;;;;23.13;58.47;97804.78;5046766;28;20232;-31
2022/10/20 06:12:02;;;;;;;6.03;5.30;;;;;;;23.14;58.68;97799.69;5050911;28;20196;-31
2022/10/20 06:14:29;;;;;;;7.50;5.60;;;;;;;23.14;58.92;97792.00;5044515;28;20747;-31
2022/10/20 06:16:55;;;;;;;5.73;5.13;;;;;;;23.14;58.98;97801.38;5040719;28;20214;-31
2022/10/20 06:19:22;;;;;;;10.37;7.33;;;;;;;23.15;56.59;97800.56;5051633;28;20220;-31
2022/10/20 06:21:49;;;;;;;10.70;7.67;;;;;;;23.13;54.70;97800.53;5037876;28;20221;-31
2022/10/20 06:24:16;;;;;;;10.07;7.37;;;;;;;23.13;55.00;97802.19;5052307;28;20197;-31
2022/10/20 06:26:43;;;;;;;8.70;6.67;;;;;;;23.13;55.55;97804.78;5038078;28;20205;-31
2022/10/20 06:29:11;;;;;;;8.73;6.90;;;;;;;23.12;56.21;97811.56;5034728;28;20216;-31
2022/10/20 06:31:47;;;;;;;7.30;6.33;;;;;;;23.12;56.40;97826.97;5048761;28;20201;-31
2022/10/20 06:34:16;;;;;;;10.37;6.13;;;;;;;23.12;57.07;97832.09;5041322;28;20196;-31
2022/10/20 06:36:42;;;;;;;6.67;5.97;;;;;;;23.11;57.48;97822.66;5047374;28;20205;-31
2022/10/20 06:39:11;;;;;;;7.47;6.47;;;;;;;23.12;57.66;97811.56;5035652;28;20283;-31
2022/10/20 06:41:38;;;;;;;6.80;5.90;;;;;;;23.07;57.72;97810.56;5052665;28;20220;-31
2022/10/20 06:44:05;;;;;;;6.60;5.60;;;;;;;23.12;57.60;97803.03;5048573;28;20208;-31
2022/10/20 06:46:34;;;;;;;8.10;5.70;;;;;;;23.13;57.69;97805.66;5054950;28;20197;-31
2022/10/20 06:49:05;;;;;;;7.27;6.27;;;;;;;23.13;58.00;97803.09;5048823;28;20224;-31
2022/10/20 06:51:32;;;;;;;7.20;6.27;;;;;;;23.13;58.22;97802.19;5046443;28;20589;-31
2022/10/20 06:53:59;;;;;;;6.60;5.90;;;;;;;23.12;58.03;97790.22;5048918;28;20778;-31
2022/10/20 06:56:27;;;;;;;7.00;6.27;;;;;;;23.14;57.26;97793.69;5048759;28;20208;-31
2022/10/20 06:58:55;;;;;;;12.17;5.97;;;;;;;23.13;57.33;97809.91;5046650;28;20225;-31
2022/10/20 07:01:22;;;;;;;7.23;6.00;;;;;;;23.13;57.50;97815.03;5046714;28;20221;-32
2022/10/20 07:03:51;;;;;;;7.57;5.93;;;;;;;23.13;57.75;97810.78;5047229;28;20207;-31
2022/10/20 07:06:20;;;;;;;6.10;5.50;;;;;;;23.00;58.06;97785.59;5053833;28;20207;-31
2022/10/20 07:08:46;;;;;;;8.40;6.03;;;;;;;23.13;57.83;97818.47;5015342;28;20224;-31
2022/10/20 07:11:14;;;;;;;6.33;5.73;;;;;;;23.13;58.28;97820.16;5043393;28;20585;-31
2022/10/20 07:13:41;;;;;;;8.77;6.03;;;;;;;23.13;58.25;97825.28;5039592;28;20217;-31
2022/10/20 07:16:10;;;;;;;5.57;5.07;;;;;;;23.00;58.46;97806.13;5040332;28;20213;-31
2022/10/20 07:18:37;;;;;;;6.07;5.13;;;;;;;23.08;58.45;97816.59;5041262;28;20734;-31
2022/10/20 07:21:08;;;;;;;8.07;5.63;;;;;;;23.12;58.51;97829.53;5042975;28;20278;-31
2022/10/20 07:23:34;;;;;;;6.33;5.33;;;;;;;23.14;58.60;97832.13;5044544;28;20201;-31
2022/10/20 07:26:07;;;;;;;5.97;5.37;;;;;;;23.07;58.72;97817.41;5037328;28;20207;-31
2022/10/20 07:28:34;;;;;;;5.37;4.87;;;;;;;23.09;58.54;97820.88;5036506;28;20734;-31
2022/10/20 07:31:05;;;;;;;5.47;4.97;;;;;;;23.13;58.63;97826.16;5042839;28;20222;-31
2022/10/20 07:33:32;;;;;;;5.37;4.87;;;;;;;23.08;58.27;97824.28;5048431;28;20201;-31
2022/10/20 07:35:58;;;;;;;5.50;5.00;;;;;;;23.13;58.63;97823.59;5042859;28;20315;-31
2022/10/20 07:38:25;;;;;;;5.77;5.17;;;;;;;23.13;58.39;97817.59;5039757;28;20639;-31
2022/10/20 07:40:51;;;;;;;6.33;4.93;;;;;;;23.13;58.71;97810.78;5038388;28;20236;-31
2022/10/20 07:43:18;;;;;;;7.00;4.67;;;;;;;23.12;58.60;97803.03;5038449;28;20490;-31
2022/10/20 07:45:44;;;;;;;5.93;4.67;;;;;;;23.12;58.93;97800.47;5049477;28;20236;-32
2022/10/20 07:48:11;;;;;;;5.30;4.60;;;;;;;23.08;58.87;97789.25;5049856;28;20227;-31
2022/10/20 07:50:39;;;;;;;5.80;5.00;;;;;;;23.14;58.77;97801.38;5045871;28;20201;-31
2022/10/20 07:53:05;;;;;;;5.50;4.97;;;;;;;23.14;58.86;97797.13;5051777;28;20208;-31
2022/10/20 07:55:33;;;;;;;5.93;5.20;;;;;;;23.08;59.06;97780.69;5039042;28;20551;-31
2022/10/20 07:58:04;;;;;;;5.20;4.70;;;;;;;23.14;58.74;97797.13;5050777;28;20617;-31
2022/10/20 08:00:31;;;;;;;4.80;4.40;;;;;;;23.15;58.82;97803.13;5049307;28;20207;-31
2022/10/20 08:02:57;;;;;;;6.53;5.03;;;;;;;23.14;59.13;97796.25;5045013;28;20217;-31
2022/10/20 08:05:25;;;;;;;4.97;4.53;;;;;;;23.14;59.17;97799.69;5043898;28;20463;-31
2022/10/20 08:07:52;;;;;;;6.00;3.90;;;;;;;23.13;58.92;97818.47;5051677;28;20456;-31
2022/10/20 08:10:18;;;;;;;5.77;4.80;;;;;;;23.13;59.03;97803.09;5039252;28;20197;-31
2022/10/20 08:12:45;;;;;;;4.70;4.27;;;;;;;23.13;59.15;97794.50;5042165;28;20193;-31
2022/10/20 08:15:11;;;;;;;4.70;4.30;;;;;;;23.14;59.01;97793.69;5047937;28;20213;-31
2022/10/20 08:17:38;;;;;;;5.73;4.60;;;;;;;23.13;59.05;97785.13;5041138;28;20205;-31
2022/10/20 08:20:05;;;;;;;4.97;4.47;;;;;;;23.13;59.36;97777.44;5054804;28;20303;-31
2022/10/20 08:22:40;;;;;;;4.70;4.20;;;;;;;23.14;59.25;97775.72;5052924;28;20306;-31
2022/10/20 08:25:09;;;;;;;4.93;4.40;;;;;;;23.13;59.32;97782.56;5048919;28;20281;-31
2022/10/20 08:27:36;;;;;;;4.60;4.20;;;;;;;23.13;59.54;97780.00;5046599;28;20201;-31
2022/10/20 08:30:02;;;;;;;4.57;4.00;;;;;;;23.14;59.56;97781.72;5035768;28;20238;-31
2022/10/20 08:32:52;;;;;;;8.27;4.23;;;;;;;23.15;59.55;97782.63;5035181;28;20198;-31
2022/10/20 08:35:20;;;;;;;6.23;4.27;;;;;;;23.10;59.50;97772.22;5045424;28;20581;-31
2022/10/20 08:37:46;;;;;;;4.53;4.13;;;;;;;23.15;59.69;97774.91;5043944;28;20233;-32
2022/10/20 08:40:20;;;;;;;4.37;3.97;;;;;;;23.13;59.56;97768.88;5042953;28;20200;-31
2022/10/20 08:42:47;;;;;;;4.47;4.07;;;;;;;23.12;59.50;97755.16;5039972;28;20288;-31
2022/10/20 08:45:15;;;;;;;4.67;4.17;;;;;;;23.07;59.42;97741.34;5038485;28;20212;-31
2022/10/20 08:47:42;;;;;;;5.43;4.10;;;;;;;23.14;59.54;97748.41;5037892;28;20589;-31
2022/10/20 08:50:10;;;;;;;10.20;4.30;;;;;;;23.13;59.39;97739.00;5042871;28;20204;-31
2022/10/20 08:52:39;;;;;;;5.13;4.47;;;;;;;23.15;59.31;97745.00;5029166;28;20196;-31
2022/10/20 08:55:06;;;;;;;6.00;4.43;;;;;;;23.16;59.34;97754.44;5028216;28;20315;-31
2022/10/20 08:57:33;;;;;;;4.67;4.20;;;;;;;23.07;59.34;97741.34;5041244;28;20208;-31
2022/10/20 09:00:21;;;;;;;4.77;4.30;;;;;;;23.16;59.45;97768.97;5033030;28;20220;-31
2022/10/20 09:02:49;;;;;;;4.63;4.00;;;;;;;23.16;59.31;97762.16;5040021;28;20225;-31
2022/10/20 09:05:16;;;;;;;5.37;4.60;;;;;;;23.13;59.71;97748.38;5044748;28;20200;-31
2022/10/20 09:07:47;;;;;;;4.10;3.80;;;;;;;23.15;59.64;97752.69;5029070;28;20204;-31
2022/10/20 09:10:31;;;;;;;5.63;4.17;;;;;;;23.16;59.38;97749.31;5045439;28;20694;-31
2022/10/20 09:12:57;;;;;;;4.20;3.80;;;;;;;23.15;59.77;97756.97;5041625;28;20200;-31
2022/10/20 09:15:25;;;;;;;4.60;4.03;;;;;;;23.15;59.56;97755.25;5040592;28;20252;-31
2022/10/20 09:17:59;;;;;;;5.03;4.30;;;;;;;23.13;59.65;97741.56;5026697;28;20520;-31
2022/10/20 09:20:55;;;;;;;4.10;3.70;;;;;;;23.15;59.48;97739.88;5030904;28;20684;-31
2022/10/20 09:23:43;;;;;;;4.20;3.80;;;;;;;23.14;59.48;97737.28;5035728;28;20212;-31
2022/10/20 09:26:17;;;;;;;5.23;4.17;;;;;;;23.13;59.68;97725.28;5033326;28;20204;-31
2022/10/20 09:29:11;;;;;;;4.30;3.90;;;;;;;23.15;59.58;97719.34;5038717;28;20717;-31
2022/10/20 09:31:43;;;;;;;3.93;3.40;;;;;;;23.16;59.65;97722.81;5035814;28;20201;-31
2022/10/20 09:34:27;;;;;;;4.27;3.87;;;;;;;23.16;59.83;97727.94;5042862;28;20215;-31
2022/10/20 09:37:05;;;;;;;3.53;3.23;;;;;;;23.15;59.79;97724.50;5040076;28;20213;-31
2022/10/20 09:40:02;;;;;;;4.73;3.40;;;;;;;23.16;59.93;97722.81;5037379;28;20221;-31
2022/10/20 09:42:35;;;;;;;4.67;3.73;;;;;;;23.15;59.76;97713.38;5041314;28;20796;-31
2022/10/20 09:45:27;;;;;;;6.27;3.80;;;;;;;23.16;59.95;97718.56;5044310;28;20395;-32
2022/10/20 09:48:18;;;;;;;3.97;3.43;;;;;;;23.18;59.75;97736.53;5042383;28;20670;-31
2022/10/20 09:50:46;;;;;;;3.67;3.37;;;;;;;23.17;59.71;97727.97;5053629;28;20200;-31
2022/10/20 09:53:20;;;;;;;6.57;3.80;;;;;;;23.17;59.64;97717.72;5062785;28;20204;-31
2022/10/20 09:55:47;;;;;;;4.10;3.70;;;;;;;23.13;59.80;97699.66;5061447;28;20204;-31
2022/10/20 09:58:22;;;;;;;6.43;3.50;;;;;;;23.18;59.85;97716.03;5052437;28;20251;-32
2022/10/20 10:01:02;;;;;;;5.47;3.57;;;;;;;23.18;59.66;97716.88;5045967;28;20283;-31
2022/10/20 10:04:00;;;;;;;3.37;3.17;;;;;;;23.18;59.80;97727.13;5045618;28;20209;-31
2022/10/20 10:06:36;;;;;;;3.97;3.57;;;;;;;23.19;59.69;97717.75;5051000;28;20201;-31
2022/10/20 10:09:20;;;;;;;3.60;3.30;;;;;;;23.18;59.80;97710.91;5052597;28;20706;-31
2022/10/20 10:11:47;;;;;;;3.47;3.17;;;;;;;23.19;59.50;97707.50;5043173;28;20201;-31
2022/10/20 10:14:20;;;;;;;3.53;3.23;;;;;;;23.17;59.78;97716.84;5044434;28;20211;-31
2022/10/20 10:16:47;;;;;;;5.10;3.50;;;;;;;23.18;60.02;97714.31;5057760;28;20216;-31
2022/10/20 10:19:18;;;;;;;3.30;3.00;;;;;;;23.18;59.75;97714.31;5039340;28;20224;-31
2022/10/20 10:21:58;;;;;;;4.83;3.37;;;;;;;23.15;60.07;97703.13;5048871;28;20219;-31
2022/10/20 10:24:46;;;;;;;3.80;3.50;;;;;;;23.09;59.85;97693.56;5055844;28;20205;-31
2022/10/20 10:27:30;;;;;;;3.97;3.63;;;;;;;23.16;59.88;97689.47;5041916;28;20660;-31
2022/10/20 10:30:15;;;;;;;4.07;3.57;;;;;;;23.18;59.80;97687.81;5050630;28;20229;-31
2022/10/20 10:32:42;;;;;;;4.17;3.57;;;;;;;23.17;59.63;97684.38;5051960;28;20201;-31
2022/10/20 10:35:28;;;;;;;3.70;3.40;;;;;;;23.17;59.99;97679.25;5055275;28;20212;-31
2022/10/20 10:37:54;;;;;;;4.13;3.40;;;;;;;23.17;59.85;97679.25;5045493;28;20208;-31
2022/10/20 10:40:32;;;;;;;4.40;3.53;;;;;;;23.17;59.91;97679.25;5044322;28;20208;-31
2022/10/20 10:43:05;;;;;;;3.30;3.00;;;;;;;23.17;60.20;97676.69;5050374;28;20231;-31
2022/10/20 10:45:37;;;;;;;4.77;3.30;;;;;;;23.18;60.07;97667.31;5056846;28;20209;-31
2022/10/20 10:48:17;;;;;;;3.60;3.30;;;;;;;23.17;59.76;97674.13;5049870;28;20623;-31
2022/10/20 10:50:59;;;;;;;3.13;2.80;;;;;;;23.18;60.12;97670.72;5046548;28;20221;-31
2022/10/20 10:54:03;;;;;;;3.20;2.90;;;;;;;23.18;60.02;97665.59;5043817;28;20201;-31
2022/10/20 10:56:45;;;;;;;3.77;3.47;;;;;;;23.18;59.80;97668.16;5051782;28;20201;-32
2022/10/20 10:59:26;;;;;;;3.33;3.03;;;;;;;23.19;60.01;97669.03;5053515;28;20612;-31
2022/10/20 11:02:32;;;;;;;4.70;3.00;;;;;;;23.19;60.05;97659.66;5049552;28;20231;-31
2022/10/20 11:05:50;;;;;;;3.53;3.23;;;;;;;23.19;59.93;97661.34;5046744;28;20200;-31
2022/10/20 11:08:32;;;;;;;3.57;3.27;;;;;;;23.19;59.83;97654.53;5001884;28;20223;-31
2022/10/20 11:11:21;;;;;;;3.27;3.03;;;;;;;23.19;59.71;97658.78;5034144;28;20209;-31
2022/10/20 11:14:08;;;;;;;3.37;3.07;;;;;;;23.18;59.93;97645.06;5048508;28;20208;-31
2022/10/20 11:17:08;;;;;;;3.10;2.90;;;;;;;23.09;59.97;97628.59;5044534;28;20216;-31
2022/10/20 11:19:50;;;;;;;4.20;3.40;;;;;;;23.18;60.08;97636.53;5047324;28;20228;-31
2022/10/20 11:22:36;;;;;;;3.23;2.93;;;;;;;23.14;59.61;97629.59;5045137;28;20224;-31
2022/10/20 11:25:26;;;;;;;3.30;2.93;;;;;;;23.19;59.84;97635.69;5048173;28;20208;-31
2022/10/20 11:27:54;;;;;;;3.40;3.10;;;;;;;23.18;60.11;97634.81;5036522;28;20292;-31
2022/10/20 11:30:21;;;;;;;3.10;2.80;;;;;;;23.19;59.88;97645.97;5034459;28;20208;-31
2022/10/20 11:32:57;;;;;;;3.00;2.80;;;;;;;23.19;59.90;97643.41;5047162;28;20197;-31
2022/10/20 11:35:50;;;;;;;3.00;2.80;;;;;;;23.18;60.29;97634.81;5056984;28;20196;-31
2022/10/20 11:38:40;;;;;;;3.20;3.00;;;;;;;23.18;59.90;97637.38;5047656;28;20243;-31
2022/10/20 11:41:31;;;;;;;3.20;2.90;;;;;;;23.19;59.76;97639.16;5047736;28;20197;-31
2022/10/20 11:44:06;;;;;;;2.90;2.70;;;;;;;23.20;59.99;97647.69;5041739;28;20205;-31
2022/10/20 11:46:50;;;;;;;3.10;2.90;;;;;;;23.19;59.81;97626.31;5018359;28;20687;-31
2022/10/20 11:49:17;;;;;;;3.27;2.97;;;;;;;23.19;59.86;97626.31;5025522;28;20227;-31
2022/10/20 11:52:28;;;;;;;2.90;2.70;;;;;;;23.20;59.97;97629.72;5043091;28;20671;-31
2022/10/20 11:55:06;;;;;;;3.10;2.80;;;;;;;23.18;59.90;97624.56;5038042;28;20205;-31